sensor_id;sensor_type;location;lat;lon;timestamp;pressure;altitude;pressure_sealevel;temperature;humidity
59987;BME280;46181;51.498;5.392;2023-02-11T00:02:18;103385.7;;;11.16;58.76855
59987;BME280;46181;51.498;5.392;2023-02-11T00:06:48;103366.8;;;11.17;58.65625
59987;BME280;46181;51.498;5.392;2023-02-11T00:11:20;103371.2;;;11.19;58.70508
59987;BME280;46181;51.498;5.392;2023-02-11T00:15:49;103381.9;;;11.22;58.66309
59987;BME280;46181;51.498;5.392;2023-02-11T00:20:18;103367.5;;;11.28;58.68359
59987;BME280;46181;51.498;5.392;2023-02-11T00:24:48;103349.8;;;11.3;58.53906
59987;BME280;46181;51.498;5.392;2023-02-11T00:29:18;103352.2;;;11.32;58.42871
59987;BME280;46181;51.498;5.392;2023-02-11T00:33:48;103367.7;;;11.35;58.46582
59987;BME280;46181;51.498;5.392;2023-02-11T00:38:18;103365.6;;;11.41;58.41797
59987;BME280;46181;51.498;5.392;2023-02-11T00:42:48;103360;;;11.43;58.28516
59987;BME280;46181;51.498;5.392;2023-02-11T00:47:18;103363.4;;;11.44;58.24219
59987;BME280;46181;51.498;5.392;2023-02-11T00:51:48;103354.4;;;11.43;58.10449
59987;BME280;46181;51.498;5.392;2023-02-11T00:56:18;103355.4;;;11.41;58.15918
59987;BME280;46181;51.498;5.392;2023-02-11T01:00:48;103358.5;;;11.42;58.12598
59987;BME280;46181;51.498;5.392;2023-02-11T01:05:18;103356.9;;;11.44;58.15234
59987;BME280;46181;51.498;5.392;2023-02-11T01:09:49;103360.3;;;11.45;58.04004
59987;BME280;46181;51.498;5.392;2023-02-11T01:14:18;103361.6;;;11.45;58.00586
59987;BME280;46181;51.498;5.392;2023-02-11T01:18:48;103369.1;;;11.43;57.98047
59987;BME280;46181;51.498;5.392;2023-02-11T01:23:18;103364.2;;;11.47;58.00977
59987;BME280;46181;51.498;5.392;2023-02-11T01:27:48;103379;;;11.48;58.02051
59987;BME280;46181;51.498;5.392;2023-02-11T01:32:18;103376.8;;;11.48;57.97656
59987;BME280;46181;51.498;5.392;2023-02-11T01:36:48;103370;;;11.47;57.91895
59987;BME280;46181;51.498;5.392;2023-02-11T01:41:20;103365.3;;;11.46;57.88379
59987;BME280;46181;51.498;5.392;2023-02-11T01:46:01;103353;;;11.39;58.11133
59987;BME280;46181;51.498;5.392;2023-02-11T01:50:18;103345.6;;;11.45;57.80273
59987;BME280;46181;51.498;5.392;2023-02-11T01:54:51;103347.3;;;11.42;57.86719
59987;BME280;46181;51.498;5.392;2023-02-11T01:59:21;103342.6;;;11.41;57.86523
59987;BME280;46181;51.498;5.392;2023-02-11T02:03:50;103343.5;;;11.4;57.79688
59987;BME280;46181;51.498;5.392;2023-02-11T02:08:23;103339.9;;;11.32;57.87598
59987;BME280;46181;51.498;5.392;2023-02-11T02:12:48;103328.5;;;11.33;57.76563
59987;BME280;46181;51.498;5.392;2023-02-11T02:17:26;103322.7;;;11.26;57.74512
59987;BME280;46181;51.498;5.392;2023-02-11T02:22:08;103329.4;;;11.15;57.91992
59987;BME280;46181;51.498;5.392;2023-02-11T02:26:41;103337.3;;;11.11;58.20996
59987;BME280;46181;51.498;5.392;2023-02-11T02:31:03;103335.9;;;11.12;58.2207
59987;BME280;46181;51.498;5.392;2023-02-11T02:35:28;103333.4;;;11.17;58.02539
59987;BME280;46181;51.498;5.392;2023-02-11T02:39:48;103339;;;11.22;58.02051
59987;BME280;46181;51.498;5.392;2023-02-11T02:44:19;103334.1;;;11.24;58.01367
59987;BME280;46181;51.498;5.392;2023-02-11T02:48:49;103327.7;;;11.22;57.95313
59987;BME280;46181;51.498;5.392;2023-02-11T02:53:25;103323.5;;;11.19;58.02832
59987;BME280;46181;51.498;5.392;2023-02-11T02:57:58;103318.5;;;11.12;58.04199
59987;BME280;46181;51.498;5.392;2023-02-11T03:02:21;103324.3;;;11.12;58.10938
59987;BME280;46181;51.498;5.392;2023-02-11T03:06:56;103331.6;;;11.09;58.30762
59987;BME280;46181;51.498;5.392;2023-02-11T03:11:19;103329.5;;;11.15;58.30469
59987;BME280;46181;51.498;5.392;2023-02-11T03:15:52;103327.3;;;11.17;58.26172
59987;BME280;46181;51.498;5.392;2023-02-11T03:20:20;103314.5;;;11.2;58.14258
59987;BME280;46181;51.498;5.392;2023-02-11T03:24:48;103311.8;;;11.2;58.16406
59987;BME280;46181;51.498;5.392;2023-02-11T03:29:24;103309.5;;;11.19;58.24316
59987;BME280;46181;51.498;5.392;2023-02-11T03:33:53;103306.9;;;11.2;58.18652
59987;BME280;46181;51.498;5.392;2023-02-11T03:38:20;103309.7;;;11.21;58.17773
59987;BME280;46181;51.498;5.392;2023-02-11T03:42:51;103314.7;;;11.22;58.29199
59987;BME280;46181;51.498;5.392;2023-02-11T03:47:20;103323.3;;;11.24;58.2041
59987;BME280;46181;51.498;5.392;2023-02-11T03:51:49;103329.3;;;11.27;58.24121
59987;BME280;46181;51.498;5.392;2023-02-11T03:56:22;103326.7;;;11.25;58.19336
59987;BME280;46181;51.498;5.392;2023-02-11T04:00:49;103321.1;;;11.29;58.22266
59987;BME280;46181;51.498;5.392;2023-02-11T04:05:22;103328.1;;;11.3;58.26758
59987;BME280;46181;51.498;5.392;2023-02-11T04:09:48;103315.6;;;11.35;58.16211
59987;BME280;46181;51.498;5.392;2023-02-11T04:14:18;103303.7;;;11.34;58.15039
59987;BME280;46181;51.498;5.392;2023-02-11T04:18:48;103295;;;11.31;58.19238
59987;BME280;46181;51.498;5.392;2023-02-11T04:23:18;103291.9;;;11.32;58.22559
59987;BME280;46181;51.498;5.392;2023-02-11T04:27:48;103285.8;;;11.31;58.21484
59987;BME280;46181;51.498;5.392;2023-02-11T04:32:18;103283.8;;;11.28;58.27637
59987;BME280;46181;51.498;5.392;2023-02-11T04:36:48;103286;;;11.3;58.4375
59987;BME280;46181;51.498;5.392;2023-02-11T04:41:18;103285.5;;;11.28;58.32129
59987;BME280;46181;51.498;5.392;2023-02-11T04:45:48;103293.1;;;11.29;58.48145
59987;BME280;46181;51.498;5.392;2023-02-11T04:50:18;103293.5;;;11.3;58.50488
59987;BME280;46181;51.498;5.392;2023-02-11T04:54:48;103299.5;;;11.3;58.50488
59987;BME280;46181;51.498;5.392;2023-02-11T04:59:18;103303.5;;;11.32;58.5752
59987;BME280;46181;51.498;5.392;2023-02-11T05:03:49;103302.6;;;11.35;58.62402
59987;BME280;46181;51.498;5.392;2023-02-11T05:08:18;103304.2;;;11.37;58.58301
59987;BME280;46181;51.498;5.392;2023-02-11T05:12:50;103307.5;;;11.39;58.58398
59987;BME280;46181;51.498;5.392;2023-02-11T05:17:19;103314.2;;;11.39;58.60742
59987;BME280;46181;51.498;5.392;2023-02-11T05:21:48;103314.3;;;11.43;58.46484
59987;BME280;46181;51.498;5.392;2023-02-11T05:26:21;103299.5;;;11.41;58.5752
59987;BME280;46181;51.498;5.392;2023-02-11T05:30:49;103300.6;;;11.42;58.57715
59987;BME280;46181;51.498;5.392;2023-02-11T05:35:18;103300.1;;;11.43;58.54492
59987;BME280;46181;51.498;5.392;2023-02-11T05:39:48;103295.5;;;11.43;58.64648
59987;BME280;46181;51.498;5.392;2023-02-11T05:44:18;103283;;;11.43;58.6123
59987;BME280;46181;51.498;5.392;2023-02-11T05:48:48;103285.8;;;11.4;58.6084
59987;BME280;46181;51.498;5.392;2023-02-11T05:53:18;103285.3;;;11.37;58.7168
59987;BME280;46181;51.498;5.392;2023-02-11T05:57:48;103288;;;11.33;58.79199
59987;BME280;46181;51.498;5.392;2023-02-11T06:02:18;103290.8;;;11.28;58.88477
59987;BME280;46181;51.498;5.392;2023-02-11T06:06:48;103291.6;;;11.24;58.94727
59987;BME280;46181;51.498;5.392;2023-02-11T06:11:18;103293.4;;;11.22;59.0127
59987;BME280;46181;51.498;5.392;2023-02-11T06:15:53;103297.8;;;11.22;59.13672
59987;BME280;46181;51.498;5.392;2023-02-11T06:20:19;103299;;;11.2;59.24707
59987;BME280;46181;51.498;5.392;2023-02-11T06:24:48;103299.4;;;11.25;59.29883
59987;BME280;46181;51.498;5.392;2023-02-11T06:29:18;103294;;;11.25;59.2998
59987;BME280;46181;51.498;5.392;2023-02-11T06:33:48;103302.6;;;11.27;59.40332
59987;BME280;46181;51.498;5.392;2023-02-11T06:38:18;103300.8;;;11.32;59.44336
59987;BME280;46181;51.498;5.392;2023-02-11T06:42:48;103297;;;11.35;59.48047
59987;BME280;46181;51.498;5.392;2023-02-11T06:47:18;103302.4;;;11.39;59.45313
59987;BME280;46181;51.498;5.392;2023-02-11T06:51:48;103307.8;;;11.43;59.45703
59987;BME280;46181;51.498;5.392;2023-02-11T06:56:21;103310;;;11.45;59.44922
59987;BME280;46181;51.498;5.392;2023-02-11T07:00:48;103312.4;;;11.5;59.40039
59987;BME280;46181;51.498;5.392;2023-02-11T07:05:19;103323.2;;;11.53;59.39258
59987;BME280;46181;51.498;5.392;2023-02-11T07:09:48;103323.8;;;11.57;59.37598
59987;BME280;46181;51.498;5.392;2023-02-11T07:14:18;103329.4;;;11.59;59.40234
59987;BME280;46181;51.498;5.392;2023-02-11T07:18:48;103325.1;;;11.6;59.40234
59987;BME280;46181;51.498;5.392;2023-02-11T07:23:18;103336.1;;;11.63;59.47363
59987;BME280;46181;51.498;5.392;2023-02-11T07:27:48;103340.8;;;11.69;59.46973
59987;BME280;46181;51.498;5.392;2023-02-11T07:32:18;103339.9;;;11.71;59.47363
59987;BME280;46181;51.498;5.392;2023-02-11T07:36:48;103342.6;;;11.75;59.47949
59987;BME280;46181;51.498;5.392;2023-02-11T07:41:20;103351.3;;;11.79;59.53125
59987;BME280;46181;51.498;5.392;2023-02-11T07:45:50;103359.4;;;11.84;59.54785
59987;BME280;46181;51.498;5.392;2023-02-11T07:50:19;103357.7;;;11.92;59.45801
59987;BME280;46181;51.498;5.392;2023-02-11T07:54:48;103363;;;11.96;59.39453
59987;BME280;46181;51.498;5.392;2023-02-11T07:59:18;103366.7;;;11.96;59.42871
59987;BME280;46181;51.498;5.392;2023-02-11T08:03:49;103370.6;;;12.01;59.44727
59987;BME280;46181;51.498;5.392;2023-02-11T08:08:18;103371.8;;;12.05;59.375
59987;BME280;46181;51.498;5.392;2023-02-11T08:12:48;103375.4;;;12.06;59.45508
59987;BME280;46181;51.498;5.392;2023-02-11T08:17:18;103376.6;;;12.09;59.43555
59987;BME280;46181;51.498;5.392;2023-02-11T08:21:49;103376.5;;;12.11;59.50586
59987;BME280;46181;51.498;5.392;2023-02-11T08:26:20;103379.2;;;12.16;59.45703
59987;BME280;46181;51.498;5.392;2023-02-11T08:30:48;103378.4;;;12.23;59.52051
59987;BME280;46181;51.498;5.392;2023-02-11T08:35:18;103379.8;;;12.26;59.4707
59987;BME280;46181;51.498;5.392;2023-02-11T08:39:48;103387.9;;;12.33;59.5127
59987;BME280;46181;51.498;5.392;2023-02-11T08:44:19;103392.5;;;12.37;59.5752
59987;BME280;46181;51.498;5.392;2023-02-11T08:48:49;103393.4;;;12.45;59.54004
59987;BME280;46181;51.498;5.392;2023-02-11T08:53:19;103390.2;;;12.51;59.45801
59987;BME280;46181;51.498;5.392;2023-02-11T08:57:48;103390.5;;;12.57;59.42188
59987;BME280;46181;51.498;5.392;2023-02-11T09:02:19;103387.3;;;12.62;59.30371
59987;BME280;46181;51.498;5.392;2023-02-11T09:06:48;103397.9;;;12.69;59.2793
59987;BME280;46181;51.498;5.392;2023-02-11T09:11:20;103399.2;;;12.72;59.20508
59987;BME280;46181;51.498;5.392;2023-02-11T09:15:48;103399;;;12.78;59.22461
59987;BME280;46181;51.498;5.392;2023-02-11T09:20:19;103396.6;;;12.82;59.21777
59987;BME280;46181;51.498;5.392;2023-02-11T09:24:48;103398.8;;;12.83;59.17383
59987;BME280;46181;51.498;5.392;2023-02-11T09:29:18;103399.7;;;12.89;59.12598
59987;BME280;46181;51.498;5.392;2023-02-11T09:33:50;103407.6;;;12.92;59.15234
59987;BME280;46181;51.498;5.392;2023-02-11T09:38:18;103415.1;;;13.04;59.16797
59987;BME280;46181;51.498;5.392;2023-02-11T09:42:59;103424.4;;;13.09;59.1416
59987;BME280;46181;51.498;5.392;2023-02-11T09:47:29;103429.3;;;13.15;59.0918
59987;BME280;46181;51.498;5.392;2023-02-11T09:51:52;103437.4;;;13.25;58.76563
59987;BME280;46181;51.498;5.392;2023-02-11T09:56:22;103435.4;;;13.31;58.64941
59987;BME280;46181;51.498;5.392;2023-02-11T10:00:51;103435.5;;;13.36;58.64551
59987;BME280;46181;51.498;5.392;2023-02-11T10:05:29;103440.6;;;13.42;58.52832
59987;BME280;46181;51.498;5.392;2023-02-11T10:10:11;103438.9;;;13.37;58.63574
59987;BME280;46181;51.498;5.392;2023-02-11T10:14:35;103441.6;;;13.4;58.53711
59987;BME280;46181;51.498;5.392;2023-02-11T10:23:24;103453;;;13.46;58.28516
59987;BME280;46181;51.498;5.392;2023-02-11T10:27:50;103465.3;;;13.47;58.13867
59987;BME280;46181;51.498;5.392;2023-02-11T10:32:28;103477.6;;;13.4;58.24219
59987;BME280;46181;51.498;5.392;2023-02-11T10:36:49;103472.8;;;13.47;58.29688
59987;BME280;46181;51.498;5.392;2023-02-11T10:41:23;103471.3;;;13.52;58.30371
59987;BME280;46181;51.498;5.392;2023-02-11T10:45:51;103476.7;;;13.59;58.22266
59987;BME280;46181;51.498;5.392;2023-02-11T10:50:29;103480.8;;;13.58;58.25488
59987;BME280;46181;51.498;5.392;2023-02-11T10:55:13;103483;;;13.7;57.9873
59987;BME280;46181;51.498;5.392;2023-02-11T10:59:24;103489.2;;;13.65;58.16309
59987;BME280;46181;51.498;5.392;2023-02-11T11:03:54;103487.8;;;13.68;58.03027
59987;BME280;46181;51.498;5.392;2023-02-11T11:08:18;103495.3;;;13.7;57.97656
59987;BME280;46181;51.498;5.392;2023-02-11T11:12:55;103498.5;;;13.67;58.03027
59987;BME280;46181;51.498;5.392;2023-02-11T11:17:26;103491.7;;;13.75;58.09668
59987;BME280;46181;51.498;5.392;2023-02-11T11:21:50;103492.2;;;13.89;57.85352
59987;BME280;46181;51.498;5.392;2023-02-11T11:26:20;103496.7;;;13.98;57.82129
59987;BME280;46181;51.498;5.392;2023-02-11T11:30:51;103492.4;;;14.13;57.76074
59987;BME280;46181;51.498;5.392;2023-02-11T11:35:29;103492.9;;;14.2;57.57715
59987;BME280;46181;51.498;5.392;2023-02-11T11:39:52;103501.3;;;14.3;57.31738
59987;BME280;46181;51.498;5.392;2023-02-11T11:44:30;103503.6;;;14.29;57.40723
59987;BME280;46181;51.498;5.392;2023-02-11T11:48:50;103503.2;;;14.43;57.19727
59987;BME280;46181;51.498;5.392;2023-02-11T11:53:22;103507.8;;;14.49;57.00098
59987;BME280;46181;51.498;5.392;2023-02-11T11:57:49;103502;;;14.5;56.80957
59987;BME280;46181;51.498;5.392;2023-02-11T12:02:39;103494;;;14.42;57.15234
59987;BME280;46181;51.498;5.392;2023-02-11T12:06:57;103490.2;;;14.51;56.89063
59987;BME280;46181;51.498;5.392;2023-02-11T12:11:27;103495.1;;;14.53;56.89258
59987;BME280;46181;51.498;5.392;2023-02-11T12:15:54;103489.5;;;14.57;56.76074
59987;BME280;46181;51.498;5.392;2023-02-11T12:20:28;103488;;;14.63;56.76953
59987;BME280;46181;51.498;5.392;2023-02-11T12:24:59;103485.6;;;14.7;56.61914
59987;BME280;46181;51.498;5.392;2023-02-11T12:29:24;103476.4;;;14.77;56.4248
59987;BME280;46181;51.498;5.392;2023-02-11T12:34:03;103466.6;;;14.82;56.36035
59987;BME280;46181;51.498;5.392;2023-02-11T12:38:40;103464;;;14.75;56.37695
59987;BME280;46181;51.498;5.392;2023-02-11T12:43:01;103469.7;;;14.85;56.44336
59987;BME280;46181;51.498;5.392;2023-02-11T12:47:24;103466.3;;;15.02;56.05664
59987;BME280;46181;51.498;5.392;2023-02-11T12:52:07;103458.6;;;15.08;56.05273
59987;BME280;46181;51.498;5.392;2023-02-11T12:56:26;103456.7;;;15.21;55.83105
59987;BME280;46181;51.498;5.392;2023-02-11T13:00:54;103451.2;;;15.41;55.78613
59987;BME280;46181;51.498;5.392;2023-02-11T13:05:26;103449.7;;;15.66;55.35254
59987;BME280;46181;51.498;5.392;2023-02-11T13:09:52;103451.2;;;15.92;54.79102
59987;BME280;46181;51.498;5.392;2023-02-11T13:14:25;103451.4;;;16.07;54.44434
59987;BME280;46181;51.498;5.392;2023-02-11T13:18:54;103448.4;;;16.2;54.12988
59987;BME280;46181;51.498;5.392;2023-02-11T13:23:28;103447.5;;;16.18;53.95703
59987;BME280;46181;51.498;5.392;2023-02-11T13:27:53;103454.7;;;16.16;53.80469
59987;BME280;46181;51.498;5.392;2023-02-11T13:32:19;103452.5;;;16.07;53.81641
59987;BME280;46181;51.498;5.392;2023-02-11T13:36:50;103446.7;;;15.98;53.85254
59987;BME280;46181;51.498;5.392;2023-02-11T13:41:25;103443.3;;;15.89;54.0459
59987;BME280;46181;51.498;5.392;2023-02-11T13:45:51;103454.8;;;15.97;54.02148
59987;BME280;46181;51.498;5.392;2023-02-11T13:50:30;103438.2;;;15.88;53.96582
59987;BME280;46181;51.498;5.392;2023-02-11T13:54:50;103438.4;;;15.95;53.88184
59987;BME280;46181;51.498;5.392;2023-02-11T13:59:48;103442.1;;;15.87;54.33984
59987;BME280;46181;51.498;5.392;2023-02-11T14:04:17;103441.9;;;15.94;54.31445
59987;BME280;46181;51.498;5.392;2023-02-11T14:08:35;103446.4;;;15.99;54.15039
59987;BME280;46181;51.498;5.392;2023-02-11T14:12:53;103446;;;16.12;53.85742
59987;BME280;46181;51.498;5.392;2023-02-11T14:17:35;103457.3;;;16.08;53.9209
59987;BME280;46181;51.498;5.392;2023-02-11T14:21:50;103458.6;;;16.08;53.65918
59987;BME280;46181;51.498;5.392;2023-02-11T14:26:38;103446.6;;;15.95;53.91699
59987;BME280;46181;51.498;5.392;2023-02-11T14:30:56;103450.3;;;15.99;53.93359
59987;BME280;46181;51.498;5.392;2023-02-11T14:35:26;103450.9;;;16.02;53.95996
59987;BME280;46181;51.498;5.392;2023-02-11T14:39:59;103449;;;15.95;53.93945
59987;BME280;46181;51.498;5.392;2023-02-11T14:44:23;103455;;;15.94;54.04102
59987;BME280;46181;51.498;5.392;2023-02-11T14:48:53;103456.9;;;15.85;54.05371
59987;BME280;46181;51.498;5.392;2023-02-11T14:53:21;103459;;;15.76;54.19043
59987;BME280;46181;51.498;5.392;2023-02-11T14:57:55;103459;;;15.73;54.38086
59987;BME280;46181;51.498;5.392;2023-02-11T15:02:32;103456.5;;;15.63;54.53809
59987;BME280;46181;51.498;5.392;2023-02-11T15:06:50;103462.5;;;15.63;54.32324
59987;BME280;46181;51.498;5.392;2023-02-11T15:11:21;103466;;;15.52;54.45801
59987;BME280;46181;51.498;5.392;2023-02-11T15:15:48;103468.9;;;15.47;54.56543
59987;BME280;46181;51.498;5.392;2023-02-11T15:20:25;103470.4;;;15.37;54.81348
59987;BME280;46181;51.498;5.392;2023-02-11T15:24:49;103475.5;;;15.38;54.83887
59987;BME280;46181;51.498;5.392;2023-02-11T15:29:27;103481.7;;;15.26;55.08594
59987;BME280;46181;51.498;5.392;2023-02-11T15:33:49;103477.8;;;15.24;55.01563
59987;BME280;46181;51.498;5.392;2023-02-11T15:38:20;103483.4;;;15.18;55.24609
59987;BME280;46181;51.498;5.392;2023-02-11T15:43:00;103489.8;;;15.06;55.4707
59987;BME280;46181;51.498;5.392;2023-02-11T15:47:24;103492;;;15.04;55.52441
59987;BME280;46181;51.498;5.392;2023-02-11T15:51:53;103488.8;;;15.04;55.60449
59987;BME280;46181;51.498;5.392;2023-02-11T15:56:26;103489.6;;;14.98;55.69922
59987;BME280;46181;51.498;5.392;2023-02-11T16:00:54;103485.6;;;14.9;55.86035
59987;BME280;46181;51.498;5.392;2023-02-11T16:05:31;103484.2;;;14.81;56.13379
59987;BME280;46181;51.498;5.392;2023-02-11T16:09:55;103483.4;;;14.87;56.01367
59987;BME280;46181;51.498;5.392;2023-02-11T16:14:35;103487.6;;;14.72;56.31543
59987;BME280;46181;51.498;5.392;2023-02-11T16:18:52;103490;;;14.72;56.39453
59987;BME280;46181;51.498;5.392;2023-02-11T16:23:25;103493.6;;;14.66;56.55762
59987;BME280;46181;51.498;5.392;2023-02-11T16:27:51;103489.5;;;14.66;56.59082
59987;BME280;46181;51.498;5.392;2023-02-11T16:32:24;103492.1;;;14.58;56.75098
59987;BME280;46181;51.498;5.392;2023-02-11T16:36:49;103493.6;;;14.57;56.93164
59987;BME280;46181;51.498;5.392;2023-02-11T16:41:18;103498.7;;;14.51;56.96973
59987;BME280;46181;51.498;5.392;2023-02-11T16:45:49;103498.1;;;14.47;57.10254
59987;BME280;46181;51.498;5.392;2023-02-11T16:50:26;103499.9;;;14.37;57.3252
59987;BME280;46181;51.498;5.392;2023-02-11T16:54:49;103504.6;;;14.39;57.27246
59987;BME280;46181;51.498;5.392;2023-02-11T16:59:19;103509.6;;;14.35;57.35742
59987;BME280;46181;51.498;5.392;2023-02-11T17:03:49;103512.4;;;14.35;57.42578
59987;BME280;46181;51.498;5.392;2023-02-11T17:08:19;103512.7;;;14.33;57.49023
59987;BME280;46181;51.498;5.392;2023-02-11T17:12:49;103515.6;;;14.28;57.63281
59987;BME280;46181;51.498;5.392;2023-02-11T17:17:19;103522.9;;;14.25;57.65039
59987;BME280;46181;51.498;5.392;2023-02-11T17:21:49;103528.5;;;14.21;57.7373
59987;BME280;46181;51.498;5.392;2023-02-11T17:26:19;103528.2;;;14.19;57.83691
59987;BME280;46181;51.498;5.392;2023-02-11T17:30:49;103526.8;;;14.16;57.91309
59987;BME280;46181;51.498;5.392;2023-02-11T17:35:19;103537.7;;;14.15;58.10352
59987;BME280;46181;51.498;5.392;2023-02-11T17:39:49;103537.7;;;14.15;58.11426
59987;BME280;46181;51.498;5.392;2023-02-11T17:44:19;103547.7;;;14.12;58.11133
59987;BME280;46181;51.498;5.392;2023-02-11T17:48:49;103557;;;14.1;58.13184
59987;BME280;46181;51.498;5.392;2023-02-11T17:53:19;103567.1;;;14.11;58.16504
59987;BME280;46181;51.498;5.392;2023-02-11T17:57:53;103564.4;;;14.07;58.17188
59987;BME280;46181;51.498;5.392;2023-02-11T18:02:19;103575.9;;;14.07;58.20605
59987;BME280;46181;51.498;5.392;2023-02-11T18:06:49;103575.9;;;14.07;58.25098
59987;BME280;46181;51.498;5.392;2023-02-11T18:11:21;103581.5;;;14.06;58.2959
59987;BME280;46181;51.498;5.392;2023-02-11T18:15:49;103583.4;;;14.05;58.2832
59987;BME280;46181;51.498;5.392;2023-02-11T18:20:19;103587.3;;;14.01;58.40332
59987;BME280;46181;51.498;5.392;2023-02-11T18:24:49;103590.4;;;14.01;58.3916
59987;BME280;46181;51.498;5.392;2023-02-11T18:29:19;103586.6;;;13.99;58.39941
59987;BME280;46181;51.498;5.392;2023-02-11T18:33:49;103586.1;;;13.96;58.46484
59987;BME280;46181;51.498;5.392;2023-02-11T18:38:19;103590.5;;;13.92;58.51563
59987;BME280;46181;51.498;5.392;2023-02-11T18:42:49;103599.1;;;13.89;58.54492
59987;BME280;46181;51.498;5.392;2023-02-11T18:47:19;103606;;;13.89;58.53418
59987;BME280;46181;51.498;5.392;2023-02-11T18:51:49;103609;;;13.88;58.55566
59987;BME280;46181;51.498;5.392;2023-02-11T18:56:20;103607.8;;;13.86;58.54199
59987;BME280;46181;51.498;5.392;2023-02-11T19:00:50;103603;;;13.85;58.58594
59987;BME280;46181;51.498;5.392;2023-02-11T19:05:19;103603.9;;;13.85;58.5293
59987;BME280;46181;51.498;5.392;2023-02-11T19:09:49;103610.3;;;13.86;58.46191
59987;BME280;46181;51.498;5.392;2023-02-11T19:14:20;103607.6;;;13.86;58.40527
59987;BME280;46181;51.498;5.392;2023-02-11T19:18:49;103604.4;;;13.83;58.33301
59987;BME280;46181;51.498;5.392;2023-02-11T19:23:19;103608.8;;;13.81;58.2627
59987;BME280;46181;51.498;5.392;2023-02-11T19:27:49;103613.6;;;13.79;58.21484
59987;BME280;46181;51.498;5.392;2023-02-11T19:32:19;103615.3;;;13.77;58.23438
59987;BME280;46181;51.498;5.392;2023-02-11T19:36:49;103619;;;13.72;58.16113
59987;BME280;46181;51.498;5.392;2023-02-11T19:41:19;103625.6;;;13.71;58.2373
59987;BME280;46181;51.498;5.392;2023-02-11T19:45:49;103625.2;;;13.7;58.18066
59987;BME280;46181;51.498;5.392;2023-02-11T19:50:20;103633.4;;;13.7;58.13477
59987;BME280;46181;51.498;5.392;2023-02-11T19:54:49;103634.6;;;13.68;58.0752
59987;BME280;46181;51.498;5.392;2023-02-11T19:59:19;103641.9;;;13.67;58.01855
59987;BME280;46181;51.498;5.392;2023-02-11T20:03:51;103644.3;;;13.64;58.12598
59987;BME280;46181;51.498;5.392;2023-02-11T20:08:19;103654.1;;;13.63;58.11523
59987;BME280;46181;51.498;5.392;2023-02-11T20:12:49;103656.1;;;13.62;58.14746
59987;BME280;46181;51.498;5.392;2023-02-11T20:17:19;103655.5;;;13.64;58.18262
59987;BME280;46181;51.498;5.392;2023-02-11T20:21:49;103659.7;;;13.64;58.20703
59987;BME280;46181;51.498;5.392;2023-02-11T20:26:21;103668.2;;;13.63;58.18262
59987;BME280;46181;51.498;5.392;2023-02-11T20:30:57;103667.1;;;13.62;58.0791
59987;BME280;46181;51.498;5.392;2023-02-11T20:35:19;103677.9;;;13.62;58.09082
59987;BME280;46181;51.498;5.392;2023-02-11T20:39:51;103679.7;;;13.58;58.08496
59987;BME280;46181;51.498;5.392;2023-02-11T20:44:19;103683.9;;;13.59;58.09766
59987;BME280;46181;51.498;5.392;2023-02-11T20:48:49;103686.4;;;13.6;57.99707
59987;BME280;46181;51.498;5.392;2023-02-11T20:53:19;103683.8;;;13.58;57.92578
59987;BME280;46181;51.498;5.392;2023-02-11T20:57:49;103692;;;13.57;57.99219
59987;BME280;46181;51.498;5.392;2023-02-11T21:02:19;103699.4;;;13.56;58.00293
59987;BME280;46181;51.498;5.392;2023-02-11T21:06:50;103699.7;;;13.54;58.05762
59987;BME280;46181;51.498;5.392;2023-02-11T21:11:19;103703.4;;;13.55;58.0127
59987;BME280;46181;51.498;5.392;2023-02-11T21:15:51;103703.4;;;13.56;57.93359
59987;BME280;46181;51.498;5.392;2023-02-11T21:20:20;103708.1;;;13.54;57.8418
59987;BME280;46181;51.498;5.392;2023-02-11T21:24:49;103710.1;;;13.53;57.83984
59987;BME280;46181;51.498;5.392;2023-02-11T21:29:19;103712.8;;;13.5;57.88184
59987;BME280;46181;51.498;5.392;2023-02-11T21:33:49;103721.8;;;13.5;57.84766
59987;BME280;46181;51.498;5.392;2023-02-11T21:38:19;103728.9;;;13.49;57.90332
59987;BME280;46181;51.498;5.392;2023-02-11T21:42:49;103725.7;;;13.51;57.9043
59987;BME280;46181;51.498;5.392;2023-02-11T21:47:19;103725.2;;;13.48;57.89063
59987;BME280;46181;51.498;5.392;2023-02-11T21:51:49;103733.5;;;13.46;57.69434
59987;BME280;46181;51.498;5.392;2023-02-11T21:56:21;103739.3;;;13.41;57.55371
59987;BME280;46181;51.498;5.392;2023-02-11T22:00:49;103733.3;;;13.42;57.48535
59987;BME280;46181;51.498;5.392;2023-02-11T22:05:19;103737.3;;;13.43;57.42969
59987;BME280;46181;51.498;5.392;2023-02-11T22:09:49;103735.1;;;13.43;57.3623
59987;BME280;46181;51.498;5.392;2023-02-11T22:14:19;103728.8;;;13.43;57.21484
59987;BME280;46181;51.498;5.392;2023-02-11T22:18:49;103738.4;;;13.42;57.10059
59987;BME280;46181;51.498;5.392;2023-02-11T22:23:19;103738;;;13.41;57.12207
59987;BME280;46181;51.498;5.392;2023-02-11T22:27:49;103745.5;;;13.4;57.03027
59987;BME280;46181;51.498;5.392;2023-02-11T22:32:19;103742.9;;;13.41;56.88379
59987;BME280;46181;51.498;5.392;2023-02-11T22:36:49;103732.9;;;13.39;56.79199
59987;BME280;46181;51.498;5.392;2023-02-11T22:41:20;103737.9;;;13.4;56.72363
59987;BME280;46181;51.498;5.392;2023-02-11T22:45:49;103739.8;;;13.36;56.71875
59987;BME280;46181;51.498;5.392;2023-02-11T22:50:19;103739.7;;;13.36;56.54785
59987;BME280;46181;51.498;5.392;2023-02-11T22:54:49;103742.2;;;13.33;56.41992
59987;BME280;46181;51.498;5.392;2023-02-11T22:59:20;103738.8;;;13.34;56.22852
59987;BME280;46181;51.498;5.392;2023-02-11T23:03:49;103740.2;;;13.33;56.18164
59987;BME280;46181;51.498;5.392;2023-02-11T23:08:19;103736.7;;;13.32;56.14648